Alice, North Dakota
Current Conditions -  °F | °C
As of 5:15 AM on Thursday 18 Dec 2014 (Local Time) from KBAC Reporting Station
Overcast Overcast  
Wind Chill: 10°   Ceiling: 9000
Heat Index: 10°   Visibility: 10mi
Dew Point: 10°   Wind: 3mph
Humidity: 100%   Direction: 140°SE
Pressure: 30.2"   Gusts: NA
Location:  46.7681°N, 97.6777°W
Report Text: KBAC 181115Z AUTO 14003KT 10SM SCT075 OVC090 M12/M12 A3020 RMK AO2
Loading
Personal Weather Stations






























Interactive Weather Map New forecast layout! Learn more

10-Day Weather Forecast

Advertisements
Track Severe Weather on mobile